sensor_id;sensor_type;location;lat;lon;timestamp;temperature;humidity
45491;DHT22;31237;45.586;13.782;2022-08-21T00:02:23;22.00;61.20
45491;DHT22;31237;45.586;13.782;2022-08-21T00:04:49;22.00;61.20
45491;DHT22;31237;45.586;13.782;2022-08-21T00:07:16;22.00;61.30
45491;DHT22;31237;45.586;13.782;2022-08-21T00:09:42;22.00;61.30
45491;DHT22;31237;45.586;13.782;2022-08-21T00:12:09;22.00;61.30
45491;DHT22;31237;45.586;13.782;2022-08-21T00:14:35;22.00;61.30
45491;DHT22;31237;45.586;13.782;2022-08-21T00:17:01;21.90;61.30
45491;DHT22;31237;45.586;13.782;2022-08-21T00:19:27;21.90;61.40
45491;DHT22;31237;45.586;13.782;2022-08-21T00:21:54;21.90;61.40
45491;DHT22;31237;45.586;13.782;2022-08-21T00:24:20;21.90;61.30
45491;DHT22;31237;45.586;13.782;2022-08-21T00:26:46;21.90;61.40
45491;DHT22;31237;45.586;13.782;2022-08-21T00:29:13;21.90;61.60
45491;DHT22;31237;45.586;13.782;2022-08-21T00:31:40;21.90;61.70
45491;DHT22;31237;45.586;13.782;2022-08-21T00:34:06;21.90;62.40
45491;DHT22;31237;45.586;13.782;2022-08-21T00:36:33;21.80;61.70
45491;DHT22;31237;45.586;13.782;2022-08-21T00:38:59;21.80;61.70
45491;DHT22;31237;45.586;13.782;2022-08-21T00:41:25;21.90;61.70
45491;DHT22;31237;45.586;13.782;2022-08-21T00:43:53;21.80;61.70
45491;DHT22;31237;45.586;13.782;2022-08-21T00:46:19;21.80;61.70
45491;DHT22;31237;45.586;13.782;2022-08-21T00:48:45;21.80;61.70
45491;DHT22;31237;45.586;13.782;2022-08-21T00:51:19;21.80;61.80
45491;DHT22;31237;45.586;13.782;2022-08-21T00:53:51;21.80;61.80
45491;DHT22;31237;45.586;13.782;2022-08-21T00:56:19;21.70;61.90
45491;DHT22;31237;45.586;13.782;2022-08-21T00:58:45;21.80;62.00
45491;DHT22;31237;45.586;13.782;2022-08-21T01:01:11;21.70;62.00
45491;DHT22;31237;45.586;13.782;2022-08-21T01:03:43;21.70;62.10
45491;DHT22;31237;45.586;13.782;2022-08-21T01:06:10;21.70;62.20
45491;DHT22;31237;45.586;13.782;2022-08-21T01:08:36;21.70;62.20
45491;DHT22;31237;45.586;13.782;2022-08-21T01:11:03;21.70;62.20
45491;DHT22;31237;45.586;13.782;2022-08-21T01:13:30;21.70;62.60
45491;DHT22;31237;45.586;13.782;2022-08-21T01:15:59;21.70;62.30
45491;DHT22;31237;45.586;13.782;2022-08-21T01:18:27;21.70;62.20
45491;DHT22;31237;45.586;13.782;2022-08-21T01:21:19;21.70;62.30
45491;DHT22;31237;45.586;13.782;2022-08-21T01:23:48;21.70;62.30
45491;DHT22;31237;45.586;13.782;2022-08-21T01:26:19;21.70;62.40
45491;DHT22;31237;45.586;13.782;2022-08-21T01:29:12;21.70;62.30
45491;DHT22;31237;45.586;13.782;2022-08-21T01:31:40;21.70;62.20
45491;DHT22;31237;45.586;13.782;2022-08-21T01:34:07;21.70;62.10
45491;DHT22;31237;45.586;13.782;2022-08-21T01:36:33;21.70;62.10
45491;DHT22;31237;45.586;13.782;2022-08-21T01:38:59;21.70;62.10
45491;DHT22;31237;45.586;13.782;2022-08-21T01:41:25;21.80;61.90
45491;DHT22;31237;45.586;13.782;2022-08-21T01:43:51;21.70;61.80
45491;DHT22;31237;45.586;13.782;2022-08-21T01:46:16;21.80;61.80
45491;DHT22;31237;45.586;13.782;2022-08-21T01:48:42;21.80;61.70
45491;DHT22;31237;45.586;13.782;2022-08-21T01:51:08;21.80;61.60
45491;DHT22;31237;45.586;13.782;2022-08-21T01:53:35;21.80;61.60
45491;DHT22;31237;45.586;13.782;2022-08-21T01:56:04;21.80;61.50
45491;DHT22;31237;45.586;13.782;2022-08-21T01:58:31;21.80;61.50
45491;DHT22;31237;45.586;13.782;2022-08-21T02:00:57;21.80;62.00
45491;DHT22;31237;45.586;13.782;2022-08-21T02:03:22;21.80;61.50
45491;DHT22;31237;45.586;13.782;2022-08-21T02:05:48;21.80;61.20
45491;DHT22;31237;45.586;13.782;2022-08-21T02:08:14;21.80;61.00
45491;DHT22;31237;45.586;13.782;2022-08-21T02:10:39;21.80;60.80
45491;DHT22;31237;45.586;13.782;2022-08-21T02:13:06;21.90;60.80
45491;DHT22;31237;45.586;13.782;2022-08-21T02:15:33;21.90;60.40
45491;DHT22;31237;45.586;13.782;2022-08-21T02:18:00;21.90;60.20
45491;DHT22;31237;45.586;13.782;2022-08-21T02:20:39;21.90;60.10
45491;DHT22;31237;45.586;13.782;2022-08-21T02:23:07;21.90;60.20
45491;DHT22;31237;45.586;13.782;2022-08-21T02:25:34;21.90;60.30
45491;DHT22;31237;45.586;13.782;2022-08-21T02:28:03;21.90;60.30
45491;DHT22;31237;45.586;13.782;2022-08-21T02:30:33;21.80;60.30
45491;DHT22;31237;45.586;13.782;2022-08-21T02:32:59;21.80;60.40
45491;DHT22;31237;45.586;13.782;2022-08-21T02:35:26;21.80;60.50
45491;DHT22;31237;45.586;13.782;2022-08-21T02:37:55;21.80;60.60
45491;DHT22;31237;45.586;13.782;2022-08-21T02:40:24;21.70;60.70
45491;DHT22;31237;45.586;13.782;2022-08-21T02:42:51;21.70;60.90
45491;DHT22;31237;45.586;13.782;2022-08-21T02:45:17;21.60;61.60
45491;DHT22;31237;45.586;13.782;2022-08-21T02:47:55;21.60;61.10
45491;DHT22;31237;45.586;13.782;2022-08-21T02:50:24;21.60;61.20
45491;DHT22;31237;45.586;13.782;2022-08-21T02:52:50;21.50;61.30
45491;DHT22;31237;45.586;13.782;2022-08-21T02:55:18;21.40;61.20
45491;DHT22;31237;45.586;13.782;2022-08-21T02:57:44;21.40;61.30
45491;DHT22;31237;45.586;13.782;2022-08-21T03:00:11;21.40;61.30
45491;DHT22;31237;45.586;13.782;2022-08-21T03:02:38;21.40;61.90
45491;DHT22;31237;45.586;13.782;2022-08-21T03:05:05;21.40;61.30
45491;DHT22;31237;45.586;13.782;2022-08-21T03:07:31;21.40;61.30
45491;DHT22;31237;45.586;13.782;2022-08-21T03:09:57;21.40;62.00
45491;DHT22;31237;45.586;13.782;2022-08-21T03:12:23;21.40;61.40
45491;DHT22;31237;45.586;13.782;2022-08-21T03:14:49;21.30;61.50
45491;DHT22;31237;45.586;13.782;2022-08-21T03:17:15;21.30;61.50
45491;DHT22;31237;45.586;13.782;2022-08-21T03:19:40;21.30;61.70
45491;DHT22;31237;45.586;13.782;2022-08-21T03:22:06;21.30;61.90
45491;DHT22;31237;45.586;13.782;2022-08-21T03:24:32;21.20;62.00
45491;DHT22;31237;45.586;13.782;2022-08-21T03:26:57;21.20;62.30
45491;DHT22;31237;45.586;13.782;2022-08-21T03:29:23;21.10;62.50
45491;DHT22;31237;45.586;13.782;2022-08-21T03:31:49;21.10;62.80
45491;DHT22;31237;45.586;13.782;2022-08-21T03:34:14;21.10;63.00
45491;DHT22;31237;45.586;13.782;2022-08-21T03:36:40;21.00;63.10
45491;DHT22;31237;45.586;13.782;2022-08-21T03:39:06;21.00;63.30
45491;DHT22;31237;45.586;13.782;2022-08-21T03:41:32;21.00;63.50
45491;DHT22;31237;45.586;13.782;2022-08-21T03:43:57;21.00;63.70
45491;DHT22;31237;45.586;13.782;2022-08-21T03:46:24;20.90;63.80
45491;DHT22;31237;45.586;13.782;2022-08-21T03:48:50;20.90;63.80
45491;DHT22;31237;45.586;13.782;2022-08-21T03:51:18;20.90;63.90
45491;DHT22;31237;45.586;13.782;2022-08-21T03:53:44;20.80;63.80
45491;DHT22;31237;45.586;13.782;2022-08-21T03:56:10;20.80;63.80
45491;DHT22;31237;45.586;13.782;2022-08-21T03:58:36;20.80;64.00
45491;DHT22;31237;45.586;13.782;2022-08-21T04:01:05;20.80;64.10
45491;DHT22;31237;45.586;13.782;2022-08-21T04:03:32;20.70;64.10
45491;DHT22;31237;45.586;13.782;2022-08-21T04:05:59;20.70;64.20
45491;DHT22;31237;45.586;13.782;2022-08-21T04:08:25;20.60;64.30
45491;DHT22;31237;45.586;13.782;2022-08-21T04:10:53;20.60;64.50
45491;DHT22;31237;45.586;13.782;2022-08-21T04:13:21;20.60;64.60
45491;DHT22;31237;45.586;13.782;2022-08-21T04:15:47;20.50;64.70
45491;DHT22;31237;45.586;13.782;2022-08-21T04:18:13;20.50;64.80
45491;DHT22;31237;45.586;13.782;2022-08-21T04:20:41;20.50;64.90
45491;DHT22;31237;45.586;13.782;2022-08-21T04:23:07;20.50;65.10
45491;DHT22;31237;45.586;13.782;2022-08-21T04:25:33;20.40;65.30
45491;DHT22;31237;45.586;13.782;2022-08-21T04:27:59;20.40;65.50
45491;DHT22;31237;45.586;13.782;2022-08-21T04:30:25;20.40;65.70
45491;DHT22;31237;45.586;13.782;2022-08-21T04:32:51;20.40;65.90
45491;DHT22;31237;45.586;13.782;2022-08-21T04:35:20;20.40;66.00
45491;DHT22;31237;45.586;13.782;2022-08-21T04:37:47;20.40;66.30
45491;DHT22;31237;45.586;13.782;2022-08-21T04:40:14;20.40;66.40
45491;DHT22;31237;45.586;13.782;2022-08-21T04:42:43;20.40;66.50
45491;DHT22;31237;45.586;13.782;2022-08-21T04:45:18;20.30;66.60
45491;DHT22;31237;45.586;13.782;2022-08-21T04:47:47;20.40;66.60
45491;DHT22;31237;45.586;13.782;2022-08-21T04:50:13;20.40;66.60
45491;DHT22;31237;45.586;13.782;2022-08-21T04:52:39;20.40;66.60
45491;DHT22;31237;45.586;13.782;2022-08-21T04:55:05;20.50;66.60
45491;DHT22;31237;45.586;13.782;2022-08-21T04:57:34;20.50;66.60
45491;DHT22;31237;45.586;13.782;2022-08-21T05:00:00;20.50;66.70
45491;DHT22;31237;45.586;13.782;2022-08-21T05:02:26;20.50;66.60
45491;DHT22;31237;45.586;13.782;2022-08-21T05:04:53;20.60;66.70
45491;DHT22;31237;45.586;13.782;2022-08-21T05:07:23;20.60;66.70
45491;DHT22;31237;45.586;13.782;2022-08-21T05:09:50;20.60;66.80
45491;DHT22;31237;45.586;13.782;2022-08-21T05:12:16;20.70;66.90
45491;DHT22;31237;45.586;13.782;2022-08-21T05:14:42;20.70;67.10
45491;DHT22;31237;45.586;13.782;2022-08-21T05:17:08;20.80;67.20
45491;DHT22;31237;45.586;13.782;2022-08-21T05:19:34;20.80;67.40
45491;DHT22;31237;45.586;13.782;2022-08-21T05:22:00;20.90;67.60
45491;DHT22;31237;45.586;13.782;2022-08-21T05:24:27;20.90;67.70
45491;DHT22;31237;45.586;13.782;2022-08-21T05:26:53;20.90;68.50
45491;DHT22;31237;45.586;13.782;2022-08-21T05:29:19;21.00;68.00
45491;DHT22;31237;45.586;13.782;2022-08-21T05:31:46;21.10;68.20
45491;DHT22;31237;45.586;13.782;2022-08-21T05:34:14;21.10;68.10
45491;DHT22;31237;45.586;13.782;2022-08-21T05:36:40;21.20;68.30
45491;DHT22;31237;45.586;13.782;2022-08-21T05:39:05;21.30;68.30
45491;DHT22;31237;45.586;13.782;2022-08-21T05:41:31;21.30;68.30
45491;DHT22;31237;45.586;13.782;2022-08-21T05:43:57;21.30;68.30
45491;DHT22;31237;45.586;13.782;2022-08-21T05:46:22;21.30;68.40
45491;DHT22;31237;45.586;13.782;2022-08-21T05:48:48;21.40;68.50
45491;DHT22;31237;45.586;13.782;2022-08-21T05:51:14;21.40;68.50
45491;DHT22;31237;45.586;13.782;2022-08-21T05:53:41;21.40;68.70
45491;DHT22;31237;45.586;13.782;2022-08-21T05:56:08;21.50;68.50
45491;DHT22;31237;45.586;13.782;2022-08-21T05:58:34;21.60;67.90
45491;DHT22;31237;45.586;13.782;2022-08-21T06:01:01;21.70;67.40
45491;DHT22;31237;45.586;13.782;2022-08-21T06:03:30;21.80;67.20
45491;DHT22;31237;45.586;13.782;2022-08-21T06:05:56;21.90;67.00
45491;DHT22;31237;45.586;13.782;2022-08-21T06:08:22;22.00;66.80
45491;DHT22;31237;45.586;13.782;2022-08-21T06:10:50;22.10;66.50
45491;DHT22;31237;45.586;13.782;2022-08-21T06:13:18;22.20;66.10
45491;DHT22;31237;45.586;13.782;2022-08-21T06:15:44;22.40;65.60
45491;DHT22;31237;45.586;13.782;2022-08-21T06:18:10;22.50;65.10
45491;DHT22;31237;45.586;13.782;2022-08-21T06:20:37;22.60;64.10
45491;DHT22;31237;45.586;13.782;2022-08-21T06:23:03;22.80;63.10
45491;DHT22;31237;45.586;13.782;2022-08-21T06:25:30;22.90;62.60
45491;DHT22;31237;45.586;13.782;2022-08-21T06:28:07;23.10;62.40
45491;DHT22;31237;45.586;13.782;2022-08-21T06:30:34;23.20;62.00
45491;DHT22;31237;45.586;13.782;2022-08-21T06:33:01;23.40;61.70
45491;DHT22;31237;45.586;13.782;2022-08-21T06:35:28;23.60;60.50
45491;DHT22;31237;45.586;13.782;2022-08-21T06:37:55;23.70;60.50
45491;DHT22;31237;45.586;13.782;2022-08-21T06:40:21;23.80;60.80
45491;DHT22;31237;45.586;13.782;2022-08-21T06:42:47;24.00;60.70
45491;DHT22;31237;45.586;13.782;2022-08-21T06:45:13;24.00;60.50
45491;DHT22;31237;45.586;13.782;2022-08-21T06:47:39;24.20;60.30
45491;DHT22;31237;45.586;13.782;2022-08-21T06:50:05;24.20;60.10
45491;DHT22;31237;45.586;13.782;2022-08-21T06:52:34;24.30;59.50
45491;DHT22;31237;45.586;13.782;2022-08-21T06:55:00;24.40;59.00
45491;DHT22;31237;45.586;13.782;2022-08-21T06:57:26;24.50;58.70
45491;DHT22;31237;45.586;13.782;2022-08-21T06:59:51;24.50;58.60
45491;DHT22;31237;45.586;13.782;2022-08-21T07:02:17;24.70;58.10
45491;DHT22;31237;45.586;13.782;2022-08-21T07:04:43;24.70;57.00
45491;DHT22;31237;45.586;13.782;2022-08-21T07:07:09;24.70;57.30
45491;DHT22;31237;45.586;13.782;2022-08-21T07:09:35;24.80;57.20
45491;DHT22;31237;45.586;13.782;2022-08-21T07:12:01;24.80;57.30
45491;DHT22;31237;45.586;13.782;2022-08-21T07:14:27;24.80;57.60
45491;DHT22;31237;45.586;13.782;2022-08-21T07:16:53;24.80;58.00
45491;DHT22;31237;45.586;13.782;2022-08-21T07:19:20;24.90;58.00
45491;DHT22;31237;45.586;13.782;2022-08-21T07:21:46;25.00;57.40
45491;DHT22;31237;45.586;13.782;2022-08-21T07:24:11;25.10;56.90
45491;DHT22;31237;45.586;13.782;2022-08-21T07:26:37;25.30;56.50
45491;DHT22;31237;45.586;13.782;2022-08-21T07:29:03;25.40;55.90
45491;DHT22;31237;45.586;13.782;2022-08-21T07:31:29;25.50;55.70
45491;DHT22;31237;45.586;13.782;2022-08-21T07:33:55;25.60;54.80
45491;DHT22;31237;45.586;13.782;2022-08-21T07:36:21;25.70;54.30
45491;DHT22;31237;45.586;13.782;2022-08-21T07:38:47;25.90;54.10
45491;DHT22;31237;45.586;13.782;2022-08-21T07:43:40;26.20;54.10
45491;DHT22;31237;45.586;13.782;2022-08-21T07:46:06;26.30;54.00
45491;DHT22;31237;45.586;13.782;2022-08-21T07:48:31;26.50;53.20
45491;DHT22;31237;45.586;13.782;2022-08-21T07:50:58;26.60;53.10
45491;DHT22;31237;45.586;13.782;2022-08-21T07:53:24;26.80;53.30
45491;DHT22;31237;45.586;13.782;2022-08-21T07:55:50;26.90;53.00
45491;DHT22;31237;45.586;13.782;2022-08-21T07:58:16;27.00;52.40
45491;DHT22;31237;45.586;13.782;2022-08-21T08:00:42;27.10;52.50
45491;DHT22;31237;45.586;13.782;2022-08-21T08:03:08;27.10;52.50
45491;DHT22;31237;45.586;13.782;2022-08-21T08:05:34;27.10;52.60
45491;DHT22;31237;45.586;13.782;2022-08-21T08:08:03;27.10;52.70
45491;DHT22;31237;45.586;13.782;2022-08-21T08:10:29;27.10;52.80
45491;DHT22;31237;45.586;13.782;2022-08-21T08:12:55;27.10;53.00
45491;DHT22;31237;45.586;13.782;2022-08-21T08:15:23;27.10;53.20
45491;DHT22;31237;45.586;13.782;2022-08-21T08:17:49;27.10;53.30
45491;DHT22;31237;45.586;13.782;2022-08-21T08:20:16;27.10;53.50
45491;DHT22;31237;45.586;13.782;2022-08-21T08:22:45;27.20;53.70
45491;DHT22;31237;45.586;13.782;2022-08-21T08:25:13;27.20;53.40
45491;DHT22;31237;45.586;13.782;2022-08-21T08:27:39;27.20;53.40
45491;DHT22;31237;45.586;13.782;2022-08-21T08:30:10;27.20;53.70
45491;DHT22;31237;45.586;13.782;2022-08-21T08:32:37;27.20;53.80
45491;DHT22;31237;45.586;13.782;2022-08-21T08:35:05;27.20;53.80
45491;DHT22;31237;45.586;13.782;2022-08-21T08:37:32;27.20;54.00
45491;DHT22;31237;45.586;13.782;2022-08-21T08:39:59;27.30;54.20
45491;DHT22;31237;45.586;13.782;2022-08-21T08:42:32;27.30;54.10
45491;DHT22;31237;45.586;13.782;2022-08-21T08:45:14;27.40;54.00
45491;DHT22;31237;45.586;13.782;2022-08-21T08:47:55;27.50;53.70
45491;DHT22;31237;45.586;13.782;2022-08-21T08:53:09;27.50;53.30
45491;DHT22;31237;45.586;13.782;2022-08-21T08:55:40;27.50;53.50
45491;DHT22;31237;45.586;13.782;2022-08-21T08:58:06;27.50;53.50
45491;DHT22;31237;45.586;13.782;2022-08-21T09:00:35;27.50;53.60
45491;DHT22;31237;45.586;13.782;2022-08-21T09:03:03;27.60;53.60
45491;DHT22;31237;45.586;13.782;2022-08-21T09:11:03;27.80;53.90
45491;DHT22;31237;45.586;13.782;2022-08-21T09:21:48;27.80;54.50
45491;DHT22;31237;45.586;13.782;2022-08-21T09:27:13;27.70;54.90
45491;DHT22;31237;45.586;13.782;2022-08-21T09:29:42;27.70;55.10
45491;DHT22;31237;45.586;13.782;2022-08-21T09:35:21;27.70;55.10
45491;DHT22;31237;45.586;13.782;2022-08-21T09:38:24;27.80;54.10
45491;DHT22;31237;45.586;13.782;2022-08-21T09:40:57;27.90;53.90
45491;DHT22;31237;45.586;13.782;2022-08-21T09:43:24;28.00;53.20
45491;DHT22;31237;45.586;13.782;2022-08-21T09:48:29;28.20;51.40
45491;DHT22;31237;45.586;13.782;2022-08-21T09:51:06;28.30;51.00
45491;DHT22;31237;45.586;13.782;2022-08-21T09:53:33;28.50;50.00
45491;DHT22;31237;45.586;13.782;2022-08-21T09:56:03;28.60;49.20
45491;DHT22;31237;45.586;13.782;2022-08-21T09:58:50;28.70;48.60
45491;DHT22;31237;45.586;13.782;2022-08-21T10:01:24;28.70;48.70
45491;DHT22;31237;45.586;13.782;2022-08-21T10:06:29;28.90;47.60
45491;DHT22;31237;45.586;13.782;2022-08-21T10:09:06;28.90;47.70
45491;DHT22;31237;45.586;13.782;2022-08-21T10:11:33;29.00;47.90
45491;DHT22;31237;45.586;13.782;2022-08-21T10:14:29;29.00;47.50
45491;DHT22;31237;45.586;13.782;2022-08-21T10:17:17;29.20;47.20
45491;DHT22;31237;45.586;13.782;2022-08-21T10:22:44;29.30;46.50
45491;DHT22;31237;45.586;13.782;2022-08-21T10:25:40;29.40;45.30
45491;DHT22;31237;45.586;13.782;2022-08-21T10:36:09;29.70;45.90
45491;DHT22;31237;45.586;13.782;2022-08-21T10:38:46;29.90;45.30
45491;DHT22;31237;45.586;13.782;2022-08-21T10:44:28;30.10;45.20
45491;DHT22;31237;45.586;13.782;2022-08-21T10:55:21;30.10;44.50
45491;DHT22;31237;45.586;13.782;2022-08-21T10:57:50;29.80;45.10
45491;DHT22;31237;45.586;13.782;2022-08-21T11:00:19;29.60;45.40
45491;DHT22;31237;45.586;13.782;2022-08-21T11:02:57;29.40;45.20
45491;DHT22;31237;45.586;13.782;2022-08-21T11:05:28;29.20;45.20
45491;DHT22;31237;45.586;13.782;2022-08-21T11:08:09;29.10;45.40
45491;DHT22;31237;45.586;13.782;2022-08-21T11:13:30;28.70;46.00
45491;DHT22;31237;45.586;13.782;2022-08-21T11:16:15;28.50;46.40
45491;DHT22;31237;45.586;13.782;2022-08-21T11:21:42;28.40;46.90
45491;DHT22;31237;45.586;13.782;2022-08-21T11:27:09;28.40;47.30
45491;DHT22;31237;45.586;13.782;2022-08-21T11:29:41;28.50;47.40
45491;DHT22;31237;45.586;13.782;2022-08-21T11:43:38;28.80;47.20
45491;DHT22;31237;45.586;13.782;2022-08-21T11:51:38;28.70;47.70
45491;DHT22;31237;45.586;13.782;2022-08-21T11:57:13;28.70;47.80
45491;DHT22;31237;45.586;13.782;2022-08-21T12:00:06;28.80;48.40
45491;DHT22;31237;45.586;13.782;2022-08-21T12:02:39;28.80;48.30
45491;DHT22;31237;45.586;13.782;2022-08-21T12:05:10;28.80;48.70
45491;DHT22;31237;45.586;13.782;2022-08-21T12:07:43;28.80;48.50
45491;DHT22;31237;45.586;13.782;2022-08-21T12:10:17;28.70;48.50
45491;DHT22;31237;45.586;13.782;2022-08-21T12:12:47;28.60;48.70
45491;DHT22;31237;45.586;13.782;2022-08-21T12:18:03;28.50;48.40
45491;DHT22;31237;45.586;13.782;2022-08-21T12:25:43;28.40;48.40
45491;DHT22;31237;45.586;13.782;2022-08-21T12:28:12;28.30;48.70
45491;DHT22;31237;45.586;13.782;2022-08-21T12:30:44;28.30;48.90
45491;DHT22;31237;45.586;13.782;2022-08-21T12:33:27;28.30;49.20
45491;DHT22;31237;45.586;13.782;2022-08-21T12:36:09;28.30;48.40
45491;DHT22;31237;45.586;13.782;2022-08-21T12:38:56;28.30;48.70
45491;DHT22;31237;45.586;13.782;2022-08-21T12:41:29;28.30;48.20
45491;DHT22;31237;45.586;13.782;2022-08-21T12:44:00;28.20;48.80
45491;DHT22;31237;45.586;13.782;2022-08-21T12:46:34;28.20;48.60
45491;DHT22;31237;45.586;13.782;2022-08-21T12:49:14;28.20;49.00
45491;DHT22;31237;45.586;13.782;2022-08-21T12:52:00;28.10;49.60
45491;DHT22;31237;45.586;13.782;2022-08-21T12:54:29;28.10;49.60
45491;DHT22;31237;45.586;13.782;2022-08-21T12:57:05;28.10;49.30
45491;DHT22;31237;45.586;13.782;2022-08-21T12:59:32;28.00;49.40
45491;DHT22;31237;45.586;13.782;2022-08-21T13:02:03;28.00;49.90
45491;DHT22;31237;45.586;13.782;2022-08-21T13:04:39;27.90;49.90
45491;DHT22;31237;45.586;13.782;2022-08-21T13:07:11;27.90;50.00
45491;DHT22;31237;45.586;13.782;2022-08-21T13:12:27;27.80;51.10
45491;DHT22;31237;45.586;13.782;2022-08-21T13:14:57;27.90;51.40
45491;DHT22;31237;45.586;13.782;2022-08-21T13:17:24;27.90;50.50
45491;DHT22;31237;45.586;13.782;2022-08-21T13:22:28;27.90;50.00
45491;DHT22;31237;45.586;13.782;2022-08-21T13:24:54;27.90;50.10
45491;DHT22;31237;45.586;13.782;2022-08-21T13:27:26;27.90;50.40
45491;DHT22;31237;45.586;13.782;2022-08-21T13:30:21;27.90;50.40
45491;DHT22;31237;45.586;13.782;2022-08-21T13:32:55;27.80;49.70
45491;DHT22;31237;45.586;13.782;2022-08-21T13:35:36;27.80;49.50
45491;DHT22;31237;45.586;13.782;2022-08-21T13:38:03;27.70;49.60
45491;DHT22;31237;45.586;13.782;2022-08-21T13:40:38;27.80;50.00
45491;DHT22;31237;45.586;13.782;2022-08-21T13:43:14;27.80;50.30
45491;DHT22;31237;45.586;13.782;2022-08-21T13:45:46;27.80;50.40
45491;DHT22;31237;45.586;13.782;2022-08-21T13:48:12;27.80;50.80
45491;DHT22;31237;45.586;13.782;2022-08-21T13:50:39;27.80;50.80
45491;DHT22;31237;45.586;13.782;2022-08-21T13:53:07;27.80;51.40
45491;DHT22;31237;45.586;13.782;2022-08-21T13:55:44;27.80;51.00
45491;DHT22;31237;45.586;13.782;2022-08-21T13:58:11;27.80;50.10
45491;DHT22;31237;45.586;13.782;2022-08-21T14:00:49;27.80;49.70
45491;DHT22;31237;45.586;13.782;2022-08-21T14:05:53;27.90;50.00
45491;DHT22;31237;45.586;13.782;2022-08-21T14:08:35;27.90;49.80
45491;DHT22;31237;45.586;13.782;2022-08-21T14:11:04;28.00;50.00
45491;DHT22;31237;45.586;13.782;2022-08-21T14:18:45;28.00;50.00
45491;DHT22;31237;45.586;13.782;2022-08-21T14:21:11;28.00;49.30
45491;DHT22;31237;45.586;13.782;2022-08-21T14:23:39;28.00;48.80
45491;DHT22;31237;45.586;13.782;2022-08-21T14:26:06;28.10;49.00
45491;DHT22;31237;45.586;13.782;2022-08-21T14:28:40;28.10;48.90
45491;DHT22;31237;45.586;13.782;2022-08-21T14:31:16;28.10;48.40
45491;DHT22;31237;45.586;13.782;2022-08-21T14:33:42;28.20;47.90
45491;DHT22;31237;45.586;13.782;2022-08-21T14:36:08;28.30;47.80
45491;DHT22;31237;45.586;13.782;2022-08-21T14:38:37;28.30;47.20
45491;DHT22;31237;45.586;13.782;2022-08-21T14:41:20;28.30;47.60
45491;DHT22;31237;45.586;13.782;2022-08-21T14:43:48;28.40;47.50
45491;DHT22;31237;45.586;13.782;2022-08-21T14:46:21;28.40;47.40
45491;DHT22;31237;45.586;13.782;2022-08-21T14:48:47;28.40;45.80
45491;DHT22;31237;45.586;13.782;2022-08-21T14:51:14;28.40;45.20
45491;DHT22;31237;45.586;13.782;2022-08-21T14:53:40;28.40;45.10
45491;DHT22;31237;45.586;13.782;2022-08-21T14:56:06;28.40;45.30
45491;DHT22;31237;45.586;13.782;2022-08-21T14:58:36;28.40;45.60
45491;DHT22;31237;45.586;13.782;2022-08-21T15:01:02;28.40;45.30
45491;DHT22;31237;45.586;13.782;2022-08-21T15:03:31;28.40;45.70
45491;DHT22;31237;45.586;13.782;2022-08-21T15:05:57;28.50;46.10
45491;DHT22;31237;45.586;13.782;2022-08-21T15:08:23;28.50;47.60
45491;DHT22;31237;45.586;13.782;2022-08-21T15:10:49;28.50;49.50
45491;DHT22;31237;45.586;13.782;2022-08-21T15:13:14;28.50;50.90
45491;DHT22;31237;45.586;13.782;2022-08-21T15:15:43;28.50;51.60
45491;DHT22;31237;45.586;13.782;2022-08-21T15:18:09;28.50;52.00
45491;DHT22;31237;45.586;13.782;2022-08-21T15:20:35;28.50;51.60
45491;DHT22;31237;45.586;13.782;2022-08-21T15:23:04;28.50;50.90
45491;DHT22;31237;45.586;13.782;2022-08-21T15:25:31;28.40;50.50
45491;DHT22;31237;45.586;13.782;2022-08-21T15:27:57;28.30;49.50
45491;DHT22;31237;45.586;13.782;2022-08-21T15:30:23;28.30;49.60
45491;DHT22;31237;45.586;13.782;2022-08-21T15:32:49;28.20;50.30
45491;DHT22;31237;45.586;13.782;2022-08-21T15:35:14;28.10;50.90
45491;DHT22;31237;45.586;13.782;2022-08-21T15:37:40;28.00;51.20
45491;DHT22;31237;45.586;13.782;2022-08-21T15:40:06;27.90;51.50
45491;DHT22;31237;45.586;13.782;2022-08-21T15:42:33;27.80;51.40
45491;DHT22;31237;45.586;13.782;2022-08-21T15:44:59;27.70;51.20
45491;DHT22;31237;45.586;13.782;2022-08-21T15:47:29;27.50;50.60
45491;DHT22;31237;45.586;13.782;2022-08-21T15:49:55;27.40;50.00
45491;DHT22;31237;45.586;13.782;2022-08-21T15:52:22;27.20;49.80
45491;DHT22;31237;45.586;13.782;2022-08-21T15:54:49;27.10;49.90
45491;DHT22;31237;45.586;13.782;2022-08-21T15:57:18;27.00;50.00
45491;DHT22;31237;45.586;13.782;2022-08-21T15:59:47;26.90;50.70
45491;DHT22;31237;45.586;13.782;2022-08-21T16:02:17;26.80;51.30
45491;DHT22;31237;45.586;13.782;2022-08-21T16:04:45;26.70;52.20
45491;DHT22;31237;45.586;13.782;2022-08-21T16:07:11;26.60;53.20
45491;DHT22;31237;45.586;13.782;2022-08-21T16:09:37;26.50;54.50
45491;DHT22;31237;45.586;13.782;2022-08-21T16:12:04;26.40;55.60
45491;DHT22;31237;45.586;13.782;2022-08-21T16:14:31;26.20;56.80
45491;DHT22;31237;45.586;13.782;2022-08-21T16:16:59;26.10;58.10
45491;DHT22;31237;45.586;13.782;2022-08-21T16:19:27;25.90;59.50
45491;DHT22;31237;45.586;13.782;2022-08-21T16:21:54;25.60;60.60
45491;DHT22;31237;45.586;13.782;2022-08-21T16:24:19;25.40;61.60
45491;DHT22;31237;45.586;13.782;2022-08-21T16:26:45;25.30;62.70
45491;DHT22;31237;45.586;13.782;2022-08-21T16:29:13;25.20;63.40
45491;DHT22;31237;45.586;13.782;2022-08-21T16:31:38;25.10;64.00
45491;DHT22;31237;45.586;13.782;2022-08-21T16:34:04;25.00;65.10
45491;DHT22;31237;45.586;13.782;2022-08-21T16:36:30;24.90;65.10
45491;DHT22;31237;45.586;13.782;2022-08-21T16:38:57;24.80;65.70
45491;DHT22;31237;45.586;13.782;2022-08-21T16:41:25;24.80;66.10
45491;DHT22;31237;45.586;13.782;2022-08-21T16:43:51;24.80;66.40
45491;DHT22;31237;45.586;13.782;2022-08-21T16:46:18;24.80;66.70
45491;DHT22;31237;45.586;13.782;2022-08-21T16:48:43;24.70;66.90
45491;DHT22;31237;45.586;13.782;2022-08-21T16:51:10;24.70;67.20
45491;DHT22;31237;45.586;13.782;2022-08-21T16:53:36;24.70;67.30
45491;DHT22;31237;45.586;13.782;2022-08-21T16:56:03;24.70;67.40
45491;DHT22;31237;45.586;13.782;2022-08-21T16:58:33;24.70;67.70
45491;DHT22;31237;45.586;13.782;2022-08-21T17:01:00;24.60;67.70
45491;DHT22;31237;45.586;13.782;2022-08-21T17:03:31;24.50;67.80
45491;DHT22;31237;45.586;13.782;2022-08-21T17:05:59;24.40;67.80
45491;DHT22;31237;45.586;13.782;2022-08-21T17:08:25;24.40;67.90